sensor_id;sensor_type;location;lat;lon;timestamp;pressure;altitude;pressure_sealevel;temperature;humidity
16544;BME280;8384;47.996;7.786;2022-10-24T00:02:04;98431.28;;;20.52;47.50
16544;BME280;8384;47.996;7.786;2022-10-24T00:04:30;98429.94;;;20.58;47.39
16544;BME280;8384;47.996;7.786;2022-10-24T00:06:59;98436.16;;;20.55;47.39
16544;BME280;8384;47.996;7.786;2022-10-24T00:09:24;98433.34;;;20.64;47.50
16544;BME280;8384;47.996;7.786;2022-10-24T00:11:49;98427.88;;;20.46;47.47
16544;BME280;8384;47.996;7.786;2022-10-24T00:14:14;98446.41;;;20.63;47.96
16544;BME280;8384;47.996;7.786;2022-10-24T00:16:40;98435.97;;;20.90;46.92
16544;BME280;8384;47.996;7.786;2022-10-24T00:19:05;98447.47;;;20.80;47.24
16544;BME280;8384;47.996;7.786;2022-10-24T00:21:30;98438.41;;;20.92;47.02
16544;BME280;8384;47.996;7.786;2022-10-24T00:23:55;98434.00;;;20.91;47.10
16544;BME280;8384;47.996;7.786;2022-10-24T00:26:21;98433.47;;;20.97;46.78
16544;BME280;8384;47.996;7.786;2022-10-24T00:28:46;98432.22;;;20.86;46.75
16544;BME280;8384;47.996;7.786;2022-10-24T00:31:14;98437.13;;;21.10;46.33
16544;BME280;8384;47.996;7.786;2022-10-24T00:33:41;98443.16;;;21.12;46.67
16544;BME280;8384;47.996;7.786;2022-10-24T00:36:14;98453.41;;;21.00;46.92
16544;BME280;8384;47.996;7.786;2022-10-24T00:38:40;98436.38;;;21.01;48.12
16544;BME280;8384;47.996;7.786;2022-10-24T00:41:05;98445.13;;;20.91;48.42
16544;BME280;8384;47.996;7.786;2022-10-24T00:43:31;98456.06;;;20.57;50.36
16544;BME280;8384;47.996;7.786;2022-10-24T00:45:57;98447.06;;;20.30;52.75
16544;BME280;8384;47.996;7.786;2022-10-24T00:51:00;98447.69;;;19.88;58.21
16544;BME280;8384;47.996;7.786;2022-10-24T00:53:28;98428.66;;;19.60;58.38
16544;BME280;8384;47.996;7.786;2022-10-24T00:55:59;98437.81;;;19.34;62.31
16544;BME280;8384;47.996;7.786;2022-10-24T00:58:28;98432.94;;;19.23;64.91
16544;BME280;8384;47.996;7.786;2022-10-24T01:00:54;98421.56;;;19.07;66.13
16544;BME280;8384;47.996;7.786;2022-10-24T01:03:20;98437.03;;;19.16;68.50
16544;BME280;8384;47.996;7.786;2022-10-24T01:08:42;98444.91;;;18.56;73.75
16544;BME280;8384;47.996;7.786;2022-10-24T01:14:37;98437.09;;;18.09;79.46
16544;BME280;8384;47.996;7.786;2022-10-24T01:20:00;98433.53;;;18.09;72.65
16544;BME280;8384;47.996;7.786;2022-10-24T01:25:33;98433.81;;;18.39;69.60
16544;BME280;8384;47.996;7.786;2022-10-24T01:28:10;98453.34;;;18.42;70.91
16544;BME280;8384;47.996;7.786;2022-10-24T01:31:20;98461.00;;;18.05;77.68
16544;BME280;8384;47.996;7.786;2022-10-24T01:33:49;98461.25;;;17.95;70.54
16544;BME280;8384;47.996;7.786;2022-10-24T01:36:20;98442.22;;;17.93;72.10
16544;BME280;8384;47.996;7.786;2022-10-24T01:38:54;98433.88;;;18.16;73.06
16544;BME280;8384;47.996;7.786;2022-10-24T01:41:23;98452.31;;;18.29;71.48
16544;BME280;8384;47.996;7.786;2022-10-24T01:43:53;98445.69;;;17.99;73.27
16544;BME280;8384;47.996;7.786;2022-10-24T01:46:23;98439.56;;;18.11;75.64
16544;BME280;8384;47.996;7.786;2022-10-24T01:48:57;98409.84;;;17.62;78.75
16544;BME280;8384;47.996;7.786;2022-10-24T01:51:26;98426.25;;;17.59;72.64
16544;BME280;8384;47.996;7.786;2022-10-24T01:53:53;98426.41;;;17.85;72.39
16544;BME280;8384;47.996;7.786;2022-10-24T01:56:18;98430.31;;;17.84;72.00
16544;BME280;8384;47.996;7.786;2022-10-24T01:58:44;98426.06;;;17.87;71.96
16544;BME280;8384;47.996;7.786;2022-10-24T02:01:13;98428.03;;;17.86;71.82
16544;BME280;8384;47.996;7.786;2022-10-24T02:03:44;98426.28;;;17.67;74.12
16544;BME280;8384;47.996;7.786;2022-10-24T02:06:19;98429.94;;;17.77;70.44
16544;BME280;8384;47.996;7.786;2022-10-24T02:08:50;98429.09;;;17.76;70.92
16544;BME280;8384;47.996;7.786;2022-10-24T02:11:16;98421.72;;;17.94;69.43
16544;BME280;8384;47.996;7.786;2022-10-24T02:13:50;98415.75;;;18.01;69.80
16544;BME280;8384;47.996;7.786;2022-10-24T02:16:18;98407.78;;;17.99;70.29
16544;BME280;8384;47.996;7.786;2022-10-24T02:18:46;98405.88;;;18.09;66.27
16544;BME280;8384;47.996;7.786;2022-10-24T02:24:02;98407.81;;;18.08;65.17
16544;BME280;8384;47.996;7.786;2022-10-24T02:26:40;98403.16;;;18.26;64.23
16544;BME280;8384;47.996;7.786;2022-10-24T02:29:16;98410.31;;;18.19;65.29
16544;BME280;8384;47.996;7.786;2022-10-24T02:31:47;98409.81;;;18.17;64.04
16544;BME280;8384;47.996;7.786;2022-10-24T02:34:16;98428.06;;;18.26;64.10
16544;BME280;8384;47.996;7.786;2022-10-24T02:36:42;98421.75;;;18.35;63.18
16544;BME280;8384;47.996;7.786;2022-10-24T02:39:10;98403.31;;;18.21;62.77
16544;BME280;8384;47.996;7.786;2022-10-24T02:41:38;98404.84;;;18.45;62.50
16544;BME280;8384;47.996;7.786;2022-10-24T02:44:05;98385.47;;;18.45;61.18
16544;BME280;8384;47.996;7.786;2022-10-24T02:46:33;98384.03;;;18.48;61.54
16544;BME280;8384;47.996;7.786;2022-10-24T02:49:00;98390.84;;;18.50;60.96
16544;BME280;8384;47.996;7.786;2022-10-24T02:51:32;98415.94;;;18.54;61.40
16544;BME280;8384;47.996;7.786;2022-10-24T02:53:59;98414.00;;;18.63;60.51
16544;BME280;8384;47.996;7.786;2022-10-24T02:56:26;98385.03;;;18.69;58.94
16544;BME280;8384;47.996;7.786;2022-10-24T02:58:51;98405.88;;;18.76;58.11
16544;BME280;8384;47.996;7.786;2022-10-24T03:01:16;98421.03;;;18.96;58.32
16544;BME280;8384;47.996;7.786;2022-10-24T03:03:42;98409.16;;;19.04;57.44
16544;BME280;8384;47.996;7.786;2022-10-24T03:06:07;98409.63;;;18.88;58.43
16544;BME280;8384;47.996;7.786;2022-10-24T03:08:33;98419.91;;;18.97;58.31
16544;BME280;8384;47.996;7.786;2022-10-24T03:10:58;98412.75;;;18.96;57.51
16544;BME280;8384;47.996;7.786;2022-10-24T03:13:24;98420.41;;;18.99;57.44
16544;BME280;8384;47.996;7.786;2022-10-24T03:15:49;98428.72;;;19.08;56.77
16544;BME280;8384;47.996;7.786;2022-10-24T03:18:14;98397.91;;;18.92;56.75
16544;BME280;8384;47.996;7.786;2022-10-24T03:20:39;98445.34;;;19.25;55.08
16544;BME280;8384;47.996;7.786;2022-10-24T03:23:05;98433.94;;;19.27;55.09
16544;BME280;8384;47.996;7.786;2022-10-24T03:25:31;98460.69;;;19.31;55.17
16544;BME280;8384;47.996;7.786;2022-10-24T03:27:56;98458.22;;;19.03;61.53
16544;BME280;8384;47.996;7.786;2022-10-24T03:30:21;98482.03;;;18.55;65.53
16544;BME280;8384;47.996;7.786;2022-10-24T03:32:46;98474.38;;;17.89;68.56
16544;BME280;8384;47.996;7.786;2022-10-24T03:35:12;98494.06;;;17.88;70.03
16544;BME280;8384;47.996;7.786;2022-10-24T03:37:37;98501.31;;;17.75;69.93
16544;BME280;8384;47.996;7.786;2022-10-24T03:40:03;98511.09;;;17.81;70.97
16544;BME280;8384;47.996;7.786;2022-10-24T03:42:28;98478.31;;;17.20;74.04
16544;BME280;8384;47.996;7.786;2022-10-24T03:44:53;98514.91;;;17.26;76.71
16544;BME280;8384;47.996;7.786;2022-10-24T03:47:18;98507.47;;;17.12;78.96
16544;BME280;8384;47.996;7.786;2022-10-24T03:49:44;98489.59;;;16.96;77.56
16544;BME280;8384;47.996;7.786;2022-10-24T03:52:10;98516.91;;;16.97;79.70
16544;BME280;8384;47.996;7.786;2022-10-24T03:54:35;98507.19;;;16.72;81.19
16544;BME280;8384;47.996;7.786;2022-10-24T03:57:01;98508.22;;;16.76;81.76
16544;BME280;8384;47.996;7.786;2022-10-24T03:59:26;98470.94;;;16.64;81.45
16544;BME280;8384;47.996;7.786;2022-10-24T04:01:52;98484.22;;;16.34;84.71
16544;BME280;8384;47.996;7.786;2022-10-24T04:04:17;98495.88;;;16.45;84.59
16544;BME280;8384;47.996;7.786;2022-10-24T04:06:42;98485.13;;;16.30;85.21
16544;BME280;8384;47.996;7.786;2022-10-24T04:09:08;98452.97;;;16.25;86.67
16544;BME280;8384;47.996;7.786;2022-10-24T04:11:33;98469.59;;;16.06;87.82
16544;BME280;8384;47.996;7.786;2022-10-24T04:13:58;98463.56;;;16.04;88.94
16544;BME280;8384;47.996;7.786;2022-10-24T04:16:25;98457.25;;;16.17;88.42
16544;BME280;8384;47.996;7.786;2022-10-24T04:18:50;98456.56;;;16.26;86.76
16544;BME280;8384;47.996;7.786;2022-10-24T04:21:16;98458.97;;;16.13;87.53
16544;BME280;8384;47.996;7.786;2022-10-24T04:23:42;98431.72;;;15.98;88.73
16544;BME280;8384;47.996;7.786;2022-10-24T04:26:09;98425.28;;;16.16;85.61
16544;BME280;8384;47.996;7.786;2022-10-24T04:28:36;98389.97;;;15.91;85.25
16544;BME280;8384;47.996;7.786;2022-10-24T04:31:01;98427.84;;;16.13;84.95
16544;BME280;8384;47.996;7.786;2022-10-24T04:33:27;98419.88;;;16.11;84.37
16544;BME280;8384;47.996;7.786;2022-10-24T04:35:52;98425.47;;;16.20;84.46
16544;BME280;8384;47.996;7.786;2022-10-24T04:38:17;98421.09;;;16.19;82.08
16544;BME280;8384;47.996;7.786;2022-10-24T04:40:51;98428.75;;;16.36;80.82
16544;BME280;8384;47.996;7.786;2022-10-24T04:43:17;98414.16;;;16.36;80.48
16544;BME280;8384;47.996;7.786;2022-10-24T04:45:43;98456.56;;;16.40;79.87
16544;BME280;8384;47.996;7.786;2022-10-24T04:48:08;98466.16;;;16.42;80.76
16544;BME280;8384;47.996;7.786;2022-10-24T04:50:34;98473.72;;;16.51;79.71
16544;BME280;8384;47.996;7.786;2022-10-24T04:53:00;98470.44;;;16.48;79.66
16544;BME280;8384;47.996;7.786;2022-10-24T04:55:26;98467.38;;;16.36;79.51
16544;BME280;8384;47.996;7.786;2022-10-24T04:57:51;98489.66;;;16.26;83.10
16544;BME280;8384;47.996;7.786;2022-10-24T05:00:16;98476.84;;;15.88;89.78
16544;BME280;8384;47.996;7.786;2022-10-24T05:02:42;98465.94;;;16.11;86.01
16544;BME280;8384;47.996;7.786;2022-10-24T05:05:07;98456.00;;;15.63;87.91
16544;BME280;8384;47.996;7.786;2022-10-24T05:07:32;98472.94;;;15.56;90.70
16544;BME280;8384;47.996;7.786;2022-10-24T05:09:57;98485.19;;;15.64;91.93
16544;BME280;8384;47.996;7.786;2022-10-24T05:12:23;98495.19;;;15.59;92.69
16544;BME280;8384;47.996;7.786;2022-10-24T05:14:48;98490.75;;;15.78;90.83
16544;BME280;8384;47.996;7.786;2022-10-24T05:17:14;98495.63;;;15.67;92.59
16544;BME280;8384;47.996;7.786;2022-10-24T05:19:39;98481.84;;;15.67;91.34
16544;BME280;8384;47.996;7.786;2022-10-24T05:22:04;98461.41;;;15.54;91.90
16544;BME280;8384;47.996;7.786;2022-10-24T05:24:30;98471.03;;;15.70;91.85
16544;BME280;8384;47.996;7.786;2022-10-24T05:26:55;98472.66;;;15.71;92.16
16544;BME280;8384;47.996;7.786;2022-10-24T05:29:20;98444.47;;;15.60;89.57
16544;BME280;8384;47.996;7.786;2022-10-24T05:31:46;98442.41;;;15.52;92.26
16544;BME280;8384;47.996;7.786;2022-10-24T05:34:11;98439.91;;;15.37;92.07
16544;BME280;8384;47.996;7.786;2022-10-24T05:36:36;98440.81;;;15.32;93.09
16544;BME280;8384;47.996;7.786;2022-10-24T05:39:02;98459.25;;;15.51;91.79
16544;BME280;8384;47.996;7.786;2022-10-24T05:41:27;98426.50;;;15.49;91.20
16544;BME280;8384;47.996;7.786;2022-10-24T05:43:52;98409.81;;;15.40;90.99
16544;BME280;8384;47.996;7.786;2022-10-24T05:46:18;98429.94;;;15.74;89.49
16544;BME280;8384;47.996;7.786;2022-10-24T05:48:43;98419.75;;;15.55;89.36
16544;BME280;8384;47.996;7.786;2022-10-24T05:51:08;98453.72;;;15.51;90.72
16544;BME280;8384;47.996;7.786;2022-10-24T05:53:33;98411.25;;;15.38;88.96
16544;BME280;8384;47.996;7.786;2022-10-24T05:55:59;98448.06;;;15.61;89.45
16544;BME280;8384;47.996;7.786;2022-10-24T05:58:24;98427.78;;;15.38;93.45
16544;BME280;8384;47.996;7.786;2022-10-24T06:00:51;98421.75;;;15.36;93.68
16544;BME280;8384;47.996;7.786;2022-10-24T06:03:16;98450.53;;;15.43;95.27
16544;BME280;8384;47.996;7.786;2022-10-24T06:05:42;98434.94;;;15.39;95.75
16544;BME280;8384;47.996;7.786;2022-10-24T06:08:07;98450.63;;;15.38;96.54
16544;BME280;8384;47.996;7.786;2022-10-24T06:10:33;98479.72;;;15.44;97.86
16544;BME280;8384;47.996;7.786;2022-10-24T06:12:59;98454.81;;;15.36;95.28
16544;BME280;8384;47.996;7.786;2022-10-24T06:15:24;98459.28;;;15.32;96.08
16544;BME280;8384;47.996;7.786;2022-10-24T06:17:49;98472.34;;;15.59;90.61
16544;BME280;8384;47.996;7.786;2022-10-24T06:20:15;98487.56;;;15.70;89.25
16544;BME280;8384;47.996;7.786;2022-10-24T06:22:40;98491.94;;;15.71;89.28
16544;BME280;8384;47.996;7.786;2022-10-24T06:25:09;98501.84;;;15.72;89.76
16544;BME280;8384;47.996;7.786;2022-10-24T06:27:34;98504.72;;;15.81;86.75
16544;BME280;8384;47.996;7.786;2022-10-24T06:30:00;98502.81;;;15.82;86.81
16544;BME280;8384;47.996;7.786;2022-10-24T06:32:25;98518.66;;;15.90;87.79
16544;BME280;8384;47.996;7.786;2022-10-24T06:34:50;98516.75;;;15.71;89.75
16544;BME280;8384;47.996;7.786;2022-10-24T06:37:16;98507.91;;;15.55;91.49
16544;BME280;8384;47.996;7.786;2022-10-24T06:39:41;98511.13;;;15.43;91.87
16544;BME280;8384;47.996;7.786;2022-10-24T06:42:06;98495.19;;;15.59;91.89
16544;BME280;8384;47.996;7.786;2022-10-24T06:44:31;98528.09;;;15.70;92.52
16544;BME280;8384;47.996;7.786;2022-10-24T06:46:57;98502.13;;;15.57;92.22
16544;BME280;8384;47.996;7.786;2022-10-24T06:49:22;98515.59;;;15.58;93.14
16544;BME280;8384;47.996;7.786;2022-10-24T06:51:47;98507.94;;;15.36;94.63
16544;BME280;8384;47.996;7.786;2022-10-24T06:54:13;98509.28;;;15.39;94.68
16544;BME280;8384;47.996;7.786;2022-10-24T06:56:39;98488.50;;;15.27;94.41
16544;BME280;8384;47.996;7.786;2022-10-24T06:59:12;98526.53;;;15.64;93.37
16544;BME280;8384;47.996;7.786;2022-10-24T07:01:38;98524.25;;;15.52;93.75
16544;BME280;8384;47.996;7.786;2022-10-24T07:04:04;98531.66;;;15.51;93.85
16544;BME280;8384;47.996;7.786;2022-10-24T07:06:30;98529.28;;;15.44;93.17
16544;BME280;8384;47.996;7.786;2022-10-24T07:08:57;98549.91;;;15.66;91.14
16544;BME280;8384;47.996;7.786;2022-10-24T07:11:25;98543.06;;;15.44;92.74
16544;BME280;8384;47.996;7.786;2022-10-24T07:13:50;98523.66;;;15.36;92.41
16544;BME280;8384;47.996;7.786;2022-10-24T07:16:15;98529.53;;;15.48;90.40
16544;BME280;8384;47.996;7.786;2022-10-24T07:18:41;98523.84;;;15.58;89.35
16544;BME280;8384;47.996;7.786;2022-10-24T07:21:10;98532.47;;;15.71;89.77
16544;BME280;8384;47.996;7.786;2022-10-24T07:23:37;98526.00;;;15.62;90.49
16544;BME280;8384;47.996;7.786;2022-10-24T07:26:11;98516.19;;;15.55;89.32
16544;BME280;8384;47.996;7.786;2022-10-24T07:28:38;98536.88;;;15.72;89.57
16544;BME280;8384;47.996;7.786;2022-10-24T07:31:04;98526.97;;;15.71;89.76
16544;BME280;8384;47.996;7.786;2022-10-24T07:33:30;98524.69;;;15.59;91.12
16544;BME280;8384;47.996;7.786;2022-10-24T07:35:56;98525.28;;;15.56;91.89
16544;BME280;8384;47.996;7.786;2022-10-24T07:38:22;98542.06;;;15.73;93.11
16544;BME280;8384;47.996;7.786;2022-10-24T07:40:48;98513.22;;;15.52;94.22
16544;BME280;8384;47.996;7.786;2022-10-24T07:43:14;98521.94;;;15.59;95.64
16544;BME280;8384;47.996;7.786;2022-10-24T07:45:40;98528.16;;;15.65;93.44
16544;BME280;8384;47.996;7.786;2022-10-24T07:48:05;98524.34;;;15.80;89.29
16544;BME280;8384;47.996;7.786;2022-10-24T07:50:32;98530.53;;;15.91;88.55
16544;BME280;8384;47.996;7.786;2022-10-24T07:52:57;98540.13;;;15.93;89.27
16544;BME280;8384;47.996;7.786;2022-10-24T07:55:23;98542.34;;;15.91;89.07
16544;BME280;8384;47.996;7.786;2022-10-24T07:57:48;98537.75;;;15.67;91.66
16544;BME280;8384;47.996;7.786;2022-10-24T08:00:14;98548.25;;;15.65;91.23
16544;BME280;8384;47.996;7.786;2022-10-24T08:02:39;98546.13;;;15.62;88.34
16544;BME280;8384;47.996;7.786;2022-10-24T08:05:05;98534.84;;;15.78;86.32
16544;BME280;8384;47.996;7.786;2022-10-24T08:07:30;98521.75;;;15.69;86.20
16544;BME280;8384;47.996;7.786;2022-10-24T08:09:56;98541.06;;;16.02;83.96
16544;BME280;8384;47.996;7.786;2022-10-24T08:12:21;98539.78;;;16.14;85.05
16544;BME280;8384;47.996;7.786;2022-10-24T08:14:46;98498.59;;;16.03;84.34
16544;BME280;8384;47.996;7.786;2022-10-24T08:17:12;98508.50;;;16.04;84.06
16544;BME280;8384;47.996;7.786;2022-10-24T08:19:38;98544.56;;;16.22;84.30
16544;BME280;8384;47.996;7.786;2022-10-24T08:22:06;98520.13;;;16.01;84.86
16544;BME280;8384;47.996;7.786;2022-10-24T08:24:32;98539.88;;;16.09;85.39
16544;BME280;8384;47.996;7.786;2022-10-24T08:26:58;98518.66;;;15.90;84.83
16544;BME280;8384;47.996;7.786;2022-10-24T08:29:23;98545.66;;;16.07;84.77
16544;BME280;8384;47.996;7.786;2022-10-24T08:31:51;98558.59;;;16.26;84.66
16544;BME280;8384;47.996;7.786;2022-10-24T08:34:16;98562.75;;;16.23;85.04
16544;BME280;8384;47.996;7.786;2022-10-24T08:36:42;98576.88;;;16.22;84.54
16544;BME280;8384;47.996;7.786;2022-10-24T08:39:07;98574.75;;;16.32;83.93
16544;BME280;8384;47.996;7.786;2022-10-24T08:42:00;98577.00;;;16.44;83.11
16544;BME280;8384;47.996;7.786;2022-10-24T08:44:36;98566.16;;;16.48;81.87
16544;BME280;8384;47.996;7.786;2022-10-24T08:47:35;98575.78;;;16.51;80.95
16544;BME280;8384;47.996;7.786;2022-10-24T08:52:37;98587.03;;;16.54;80.76
16544;BME280;8384;47.996;7.786;2022-10-24T08:55:10;98600.91;;;16.49;81.77
16544;BME280;8384;47.996;7.786;2022-10-24T08:57:38;98597.88;;;16.51;80.99
16544;BME280;8384;47.996;7.786;2022-10-24T09:00:25;98607.56;;;16.62;80.31
16544;BME280;8384;47.996;7.786;2022-10-24T09:03:00;98583.63;;;16.43;81.06
16544;BME280;8384;47.996;7.786;2022-10-24T09:05:31;98575.78;;;16.37;80.56
16544;BME280;8384;47.996;7.786;2022-10-24T09:08:09;98589.59;;;16.64;79.74
16544;BME280;8384;47.996;7.786;2022-10-24T09:10:48;98612.47;;;16.51;80.55
16544;BME280;8384;47.996;7.786;2022-10-24T09:13:17;98618.41;;;16.58;80.02
16544;BME280;8384;47.996;7.786;2022-10-24T09:15:44;98610.13;;;16.58;78.95
16544;BME280;8384;47.996;7.786;2022-10-24T09:18:33;98596.00;;;16.60;77.78
16544;BME280;8384;47.996;7.786;2022-10-24T09:21:00;98598.50;;;16.61;77.16
16544;BME280;8384;47.996;7.786;2022-10-24T09:23:26;98621.44;;;16.57;78.47
16544;BME280;8384;47.996;7.786;2022-10-24T09:25:54;98624.44;;;16.60;77.48
16544;BME280;8384;47.996;7.786;2022-10-24T09:28:20;98630.84;;;16.56;78.48
16544;BME280;8384;47.996;7.786;2022-10-24T09:30:46;98597.00;;;16.36;80.25
16544;BME280;8384;47.996;7.786;2022-10-24T09:33:22;98633.63;;;16.42;81.09
16544;BME280;8384;47.996;7.786;2022-10-24T09:35:51;98655.38;;;16.43;81.12
16544;BME280;8384;47.996;7.786;2022-10-24T09:40:56;98635.16;;;16.15;83.03
16544;BME280;8384;47.996;7.786;2022-10-24T09:43:32;98599.75;;;16.03;83.80
16544;BME280;8384;47.996;7.786;2022-10-24T09:46:07;98639.13;;;16.09;85.56
16544;BME280;8384;47.996;7.786;2022-10-24T09:48:47;98658.81;;;16.02;88.30
16544;BME280;8384;47.996;7.786;2022-10-24T09:51:33;98653.50;;;15.86;89.05
16544;BME280;8384;47.996;7.786;2022-10-24T09:56:57;98659.16;;;15.57;90.26
16544;BME280;8384;47.996;7.786;2022-10-24T09:59:46;98661.53;;;15.64;91.16
16544;BME280;8384;47.996;7.786;2022-10-24T10:02:18;98671.66;;;15.68;93.32
16544;BME280;8384;47.996;7.786;2022-10-24T10:04:46;98668.19;;;15.38;95.19
16544;BME280;8384;47.996;7.786;2022-10-24T10:07:15;98652.50;;;15.39;93.80
16544;BME280;8384;47.996;7.786;2022-10-24T10:09:52;98673.50;;;15.54;94.41
16544;BME280;8384;47.996;7.786;2022-10-24T10:12:36;98649.31;;;15.51;94.16
16544;BME280;8384;47.996;7.786;2022-10-24T10:17:49;98672.03;;;15.81;94.13
16544;BME280;8384;47.996;7.786;2022-10-24T10:20:23;98656.03;;;15.64;94.28
16544;BME280;8384;47.996;7.786;2022-10-24T10:22:50;98666.91;;;15.74;93.45
16544;BME280;8384;47.996;7.786;2022-10-24T10:25:30;98662.88;;;15.85;91.94
16544;BME280;8384;47.996;7.786;2022-10-24T10:27:55;98676.47;;;16.01;92.15
16544;BME280;8384;47.996;7.786;2022-10-24T10:30:21;98672.03;;;16.19;91.54
16544;BME280;8384;47.996;7.786;2022-10-24T10:33:02;98675.91;;;16.18;88.54
16544;BME280;8384;47.996;7.786;2022-10-24T10:35:57;98677.19;;;16.26;87.26
16544;BME280;8384;47.996;7.786;2022-10-24T10:38:44;98663.28;;;16.31;87.52
16544;BME280;8384;47.996;7.786;2022-10-24T10:41:33;98671.72;;;16.40;86.13
16544;BME280;8384;47.996;7.786;2022-10-24T10:47:01;98683.00;;;16.57;84.09
16544;BME280;8384;47.996;7.786;2022-10-24T10:49:36;98683.03;;;16.71;82.57
16544;BME280;8384;47.996;7.786;2022-10-24T10:52:23;98680.06;;;16.68;81.68
16544;BME280;8384;47.996;7.786;2022-10-24T10:57:33;98685.66;;;16.62;80.23
16544;BME280;8384;47.996;7.786;2022-10-24T11:10:53;98672.69;;;16.77;78.93
16544;BME280;8384;47.996;7.786;2022-10-24T11:13:44;98674.97;;;16.89;77.15
16544;BME280;8384;47.996;7.786;2022-10-24T11:16:12;98652.91;;;17.03;75.84
16544;BME280;8384;47.996;7.786;2022-10-24T11:18:44;98650.47;;;17.15;75.48
16544;BME280;8384;47.996;7.786;2022-10-24T11:21:15;98667.13;;;17.10;74.08
16544;BME280;8384;47.996;7.786;2022-10-24T11:23:46;98674.69;;;17.46;72.78
16544;BME280;8384;47.996;7.786;2022-10-24T11:26:31;98614.66;;;17.10;72.44
16544;BME280;8384;47.996;7.786;2022-10-24T11:29:03;98655.81;;;17.62;71.05
16544;BME280;8384;47.996;7.786;2022-10-24T11:31:37;98625.03;;;17.55;69.16
16544;BME280;8384;47.996;7.786;2022-10-24T11:34:14;98651.00;;;17.68;68.58
16544;BME280;8384;47.996;7.786;2022-10-24T11:37:03;98653.56;;;17.64;69.36
16544;BME280;8384;47.996;7.786;2022-10-24T11:40:19;98647.75;;;17.66;71.57
16544;BME280;8384;47.996;7.786;2022-10-24T11:43:04;98650.03;;;17.87;71.94
16544;BME280;8384;47.996;7.786;2022-10-24T11:45:39;98634.00;;;17.75;70.94
16544;BME280;8384;47.996;7.786;2022-10-24T11:48:16;98637.13;;;18.19;70.20
16544;BME280;8384;47.996;7.786;2022-10-24T11:50:51;98634.88;;;18.21;69.70
16544;BME280;8384;47.996;7.786;2022-10-24T11:53:48;98644.03;;;18.07;68.58
16544;BME280;8384;47.996;7.786;2022-10-24T11:56:24;98645.59;;;18.45;68.82
16544;BME280;8384;47.996;7.786;2022-10-24T11:59:07;98648.25;;;18.27;67.28
16544;BME280;8384;47.996;7.786;2022-10-24T12:09:38;98626.16;;;18.68;64.10
16544;BME280;8384;47.996;7.786;2022-10-24T12:17:14;98623.97;;;19.28;61.09
16544;BME280;8384;47.996;7.786;2022-10-24T12:19:44;98630.88;;;19.57;60.02
16544;BME280;8384;47.996;7.786;2022-10-24T12:22:31;98619.50;;;19.67;58.46
16544;BME280;8384;47.996;7.786;2022-10-24T12:25:55;98628.47;;;19.90;57.19
16544;BME280;8384;47.996;7.786;2022-10-24T12:27:57;98611.63;;;19.34;58.22
16544;BME280;8384;47.996;7.786;2022-10-24T12:30:25;98626.09;;;19.22;59.58
16544;BME280;8384;47.996;7.786;2022-10-24T12:37:54;98625.13;;;19.36;59.83
16544;BME280;8384;47.996;7.786;2022-10-24T12:40:52;98625.97;;;19.54;57.82
16544;BME280;8384;47.996;7.786;2022-10-24T12:43:29;98629.41;;;19.51;58.69
16544;BME280;8384;47.996;7.786;2022-10-24T12:45:56;98620.94;;;19.56;58.23
16544;BME280;8384;47.996;7.786;2022-10-24T12:48:35;98615.72;;;19.54;57.75
16544;BME280;8384;47.996;7.786;2022-10-24T12:51:24;98610.50;;;19.53;57.97
16544;BME280;8384;47.996;7.786;2022-10-24T12:59:19;98577.69;;;19.28;58.41
16544;BME280;8384;47.996;7.786;2022-10-24T13:01:47;98603.81;;;19.54;57.96
16544;BME280;8384;47.996;7.786;2022-10-24T13:04:34;98605.09;;;19.47;58.79
16544;BME280;8384;47.996;7.786;2022-10-24T13:17:47;98590.13;;;20.10;56.35
16544;BME280;8384;47.996;7.786;2022-10-24T13:20:22;98607.03;;;20.44;56.12
16544;BME280;8384;47.996;7.786;2022-10-24T13:22:48;98620.09;;;20.52;55.84
16544;BME280;8384;47.996;7.786;2022-10-24T13:25:18;98601.47;;;20.52;55.57
16544;BME280;8384;47.996;7.786;2022-10-24T13:27:44;98619.94;;;20.40;54.92
16544;BME280;8384;47.996;7.786;2022-10-24T13:30:23;98608.28;;;21.11;53.78
16544;BME280;8384;47.996;7.786;2022-10-24T13:32:49;98603.09;;;21.31;52.38
16544;BME280;8384;47.996;7.786;2022-10-24T13:35:19;98603.84;;;20.80;52.43
16544;BME280;8384;47.996;7.786;2022-10-24T13:37:49;98599.53;;;20.35;54.13
16544;BME280;8384;47.996;7.786;2022-10-24T13:40:28;98600.41;;;20.83;53.43
16544;BME280;8384;47.996;7.786;2022-10-24T13:45:45;98603.97;;;21.44;50.56
16544;BME280;8384;47.996;7.786;2022-10-24T13:48:17;98604.06;;;21.56;50.40
16544;BME280;8384;47.996;7.786;2022-10-24T13:50:52;98604.03;;;20.66;52.77
16544;BME280;8384;47.996;7.786;2022-10-24T13:53:23;98602.63;;;20.43;52.35
16544;BME280;8384;47.996;7.786;2022-10-24T13:55:49;98605.00;;;19.88;54.40
16544;BME280;8384;47.996;7.786;2022-10-24T13:58:24;98609.84;;;19.73;54.51
16544;BME280;8384;47.996;7.786;2022-10-24T14:03:21;98633.66;;;19.66;55.66
16544;BME280;8384;47.996;7.786;2022-10-24T14:05:50;98641.81;;;19.44;57.49
16544;BME280;8384;47.996;7.786;2022-10-24T14:08:33;98647.53;;;19.57;57.88
16544;BME280;8384;47.996;7.786;2022-10-24T14:11:02;98617.16;;;19.52;57.91
16544;BME280;8384;47.996;7.786;2022-10-24T14:13:30;98623.06;;;19.68;58.11
16544;BME280;8384;47.996;7.786;2022-10-24T14:16:01;98617.03;;;19.74;59.08
16544;BME280;8384;47.996;7.786;2022-10-24T14:18:27;98622.41;;;19.79;57.48
16544;BME280;8384;47.996;7.786;2022-10-24T14:20:54;98623.91;;;19.59;57.65
16544;BME280;8384;47.996;7.786;2022-10-24T14:23:27;98627.31;;;19.74;58.40
16544;BME280;8384;47.996;7.786;2022-10-24T14:26:14;98638.44;;;19.91;57.90
16544;BME280;8384;47.996;7.786;2022-10-24T14:28:43;98615.75;;;20.07;57.14
16544;BME280;8384;47.996;7.786;2022-10-24T14:31:21;98633.53;;;19.88;57.60
16544;BME280;8384;47.996;7.786;2022-10-24T14:33:48;98652.06;;;19.44;59.14
16544;BME280;8384;47.996;7.786;2022-10-24T14:36:16;98644.72;;;19.30;59.23
16544;BME280;8384;47.996;7.786;2022-10-24T14:38:42;98636.66;;;19.11;60.24
16544;BME280;8384;47.996;7.786;2022-10-24T14:41:08;98644.09;;;19.51;60.41
16544;BME280;8384;47.996;7.786;2022-10-24T14:43:39;98635.25;;;19.31;60.58
16544;BME280;8384;47.996;7.786;2022-10-24T14:48:36;98612.38;;;19.08;60.30
16544;BME280;8384;47.996;7.786;2022-10-24T14:51:09;98645.53;;;18.91;60.79